Time;durP1;ratioP1;P1;durP2;ratioP2;P2;SDS_P1;SDS_P2;PMS_P1;PMS_P2;Temp;Humidity;BMP_temperature;BMP_pressure;BME280_temperature;BME280_humidity;BME280_pressure;Samples;Min_cycle;Max_cycle;Signal;HPM_P1;HPM_P2
2022/03/24 00:01:31;;;;;;;15.07;12.40;;;;;;;;;;4994730;28;20811;-76
2022/03/24 00:03:58;;;;;;;22.67;15.52;;;;;;;;;;4998587;28;20291;-76
2022/03/24 00:06:25;;;;;;;15.18;13.57;;;;;;;;;;4998605;28;20559;-75
2022/03/24 00:08:52;;;;;;;18.50;14.73;;;;;;;;;;4996209;28;20216;-75
2022/03/24 00:11:20;;;;;;;16.33;14.02;;;;;;;;;;4995886;28;20682;-77
2022/03/24 00:13:50;;;;;;;18.55;12.23;;;;;;;;;;4998104;28;20802;-73
2022/03/24 00:16:18;;;;;;;15.40;13.48;;;;;;;;;;4997865;28;20211;-76
2022/03/24 00:18:45;;;;;;;16.48;13.18;;;;;;;;;;4995769;28;20197;-75
2022/03/24 00:21:12;;;;;;;15.27;12.88;;;;;;;;;;4998422;28;20219;-75
2022/03/24 00:23:39;;;;;;;18.05;14.35;;;;;;;;;;5002662;28;20200;-74
2022/03/24 00:26:06;;;;;;;14.82;13.23;;;;;;;;;;4999882;28;20208;-74
2022/03/24 00:28:33;;;;;;;16.58;14.43;;;;;;;;;;5000201;28;20200;-74
2022/03/24 00:31:02;;;;;;;20.85;15.27;;;;;;;;;;4995856;28;20197;-76
2022/03/24 00:33:31;;;;;;;16.05;13.10;;;;;;;;;;5000086;28;20228;-75
2022/03/24 00:35:58;;;;;;;21.40;15.30;;;;;;;;;;5004308;28;21854;-74
2022/03/24 00:38:26;;;;;;;18.90;14.30;;;;;;;;;;4999040;28;20200;-75
2022/03/24 00:40:55;;;;;;;18.77;14.52;;;;;;;;;;4996702;28;20627;-76
2022/03/24 00:43:22;;;;;;;21.27;16.88;;;;;;;;;;4999089;28;20571;-75
2022/03/24 00:45:51;;;;;;;21.90;13.82;;;;;;;;;;4998832;28;20294;-74
2022/03/24 00:48:19;;;;;;;20.15;14.13;;;;;;;;;;4996739;28;20211;-75
2022/03/24 00:50:47;;;;;;;21.60;16.58;;;;;;;;;;5000991;28;20567;-74
2022/03/24 00:53:14;;;;;;;20.40;14.98;;;;;;;;;;5004320;28;20763;-75
2022/03/24 00:55:41;;;;;;;27.95;18.20;;;;;;;;;;4997457;28;20220;-75
2022/03/24 00:58:08;;;;;;;20.23;16.17;;;;;;;;;;5005782;28;20251;-74
2022/03/24 01:00:36;;;;;;;20.10;15.65;;;;;;;;;;4997516;28;20208;-75
2022/03/24 01:03:06;;;;;;;25.80;17.40;;;;;;;;;;5000990;28;20189;-74
2022/03/24 01:05:37;;;;;;;22.25;16.73;;;;;;;;;;4997629;28;20319;-76
2022/03/24 01:08:05;;;;;;;31.40;22.20;;;;;;;;;;4995074;28;20200;-77
2022/03/24 01:10:32;;;;;;;26.02;18.48;;;;;;;;;;4996227;28;20682;-77
2022/03/24 01:13:00;;;;;;;27.05;19.95;;;;;;;;;;5009499;28;20700;-74
2022/03/24 01:15:27;;;;;;;27.60;18.55;;;;;;;;;;5000748;28;20225;-74
2022/03/24 01:17:55;;;;;;;26.17;20.80;;;;;;;;;;5009292;28;20196;-74
2022/03/24 01:20:22;;;;;;;29.60;21.83;;;;;;;;;;5007754;28;20197;-75
2022/03/24 01:22:51;;;;;;;25.58;18.38;;;;;;;;;;4995116;28;20203;-76
2022/03/24 01:25:18;;;;;;;27.10;19.85;;;;;;;;;;5000973;28;20196;-76
2022/03/24 01:27:45;;;;;;;29.38;21.10;;;;;;;;;;5007130;28;20204;-73
2022/03/24 01:30:13;;;;;;;27.85;20.40;;;;;;;;;;5013084;28;20678;-76
2022/03/24 01:32:40;;;;;;;30.17;21.90;;;;;;;;;;5000997;28;20239;-75
2022/03/24 01:35:08;;;;;;;29.73;21.90;;;;;;;;;;4996629;28;20579;-75
2022/03/24 01:37:35;;;;;;;32.05;22.55;;;;;;;;;;4994125;28;20208;-74
2022/03/24 01:40:04;;;;;;;28.15;21.70;;;;;;;;;;4997698;28;20308;-74
2022/03/24 01:42:35;;;;;;;31.35;23.67;;;;;;;;;;4997123;28;20203;-74
2022/03/24 01:45:02;;;;;;;32.85;23.10;;;;;;;;;;4997047;28;20251;-74
2022/03/24 01:47:29;;;;;;;34.35;23.27;;;;;;;;;;4992007;28;20683;-75
2022/03/24 01:49:58;;;;;;;32.90;22.55;;;;;;;;;;4997443;28;20734;-77
2022/03/24 01:52:26;;;;;;;33.35;23.48;;;;;;;;;;4993321;28;20312;-74
2022/03/24 01:54:54;;;;;;;35.25;22.77;;;;;;;;;;4997471;28;20223;-75
2022/03/24 01:57:23;;;;;;;31.45;23.67;;;;;;;;;;4995830;28;20327;-76
2022/03/24 01:59:50;;;;;;;29.23;23.15;;;;;;;;;;4998318;28;20652;-76
2022/03/24 02:02:18;;;;;;;34.63;22.48;;;;;;;;;;4992537;28;20204;-78
2022/03/24 02:04:45;;;;;;;37.17;24.67;;;;;;;;;;5000985;28;20216;-78
2022/03/24 02:07:13;;;;;;;32.60;25.50;;;;;;;;;;4998596;28;20207;-75
2022/03/24 02:09:40;;;;;;;30.95;21.05;;;;;;;;;;5004040;28;20271;-75
2022/03/24 02:12:08;;;;;;;33.20;24.05;;;;;;;;;;4992608;28;20200;-75
2022/03/24 02:14:37;;;;;;;32.40;24.27;;;;;;;;;;5005502;28;22060;-75
2022/03/24 02:17:04;;;;;;;34.20;24.33;;;;;;;;;;5009292;28;20649;-75
2022/03/24 02:19:33;;;;;;;28.98;22.90;;;;;;;;;;5011204;28;20872;-75
2022/03/24 02:22:06;;;;;;;33.08;23.75;;;;;;;;;;5011256;28;20662;-75
2022/03/24 02:24:34;;;;;;;33.05;22.08;;;;;;;;;;5005111;28;20213;-76
2022/03/24 02:27:03;;;;;;;32.30;24.50;;;;;;;;;;4998661;28;20197;-78
2022/03/24 02:29:30;;;;;;;36.45;24.63;;;;;;;;;;5002167;28;20207;-75
2022/03/24 02:31:57;;;;;;;29.52;20.75;;;;;;;;;;4999732;28;20291;-74
2022/03/24 02:34:47;;;;;;;30.42;21.50;;;;;;;;;;4996867;28;20213;-73
2022/03/24 02:37:17;;;;;;;27.60;20.80;;;;;;;;;;4995729;28;20203;-76
2022/03/24 02:39:45;;;;;;;29.45;19.52;;;;;;;;;;4993263;28;20561;-75
2022/03/24 02:42:14;;;;;;;28.80;23.38;;;;;;;;;;4998768;28;20204;-75
2022/03/24 02:44:42;;;;;;;31.70;22.10;;;;;;;;;;4996121;28;20196;-74
2022/03/24 02:47:10;;;;;;;23.55;19.63;;;;;;;;;;4992250;28;20232;-75
2022/03/24 02:49:37;;;;;;;29.67;20.60;;;;;;;;;;4995679;28;20230;-75
2022/03/24 02:52:05;;;;;;;27.52;20.80;;;;;;;;;;5002948;28;20192;-74
2022/03/24 02:54:34;;;;;;;27.40;21.10;;;;;;;;;;4996069;28;20239;-74
2022/03/24 02:57:01;;;;;;;27.73;19.90;;;;;;;;;;4993577;28;20204;-75
2022/03/24 02:59:28;;;;;;;25.17;20.40;;;;;;;;;;4997142;28;20577;-74
2022/03/24 03:01:58;;;;;;;27.35;20.17;;;;;;;;;;4995150;28;20200;-74
2022/03/24 03:04:25;;;;;;;26.13;17.55;;;;;;;;;;4993587;28;20654;-77
2022/03/24 03:06:52;;;;;;;26.15;19.00;;;;;;;;;;4998557;28;20227;-76
2022/03/24 03:09:19;;;;;;;23.77;17.63;;;;;;;;;;4998196;28;20207;-74
2022/03/24 03:11:48;;;;;;;24.80;20.20;;;;;;;;;;5005793;28;20196;-77
2022/03/24 03:14:15;;;;;;;25.42;17.80;;;;;;;;;;4998688;28;20231;-74
2022/03/24 03:16:44;;;;;;;27.65;18.70;;;;;;;;;;5004297;28;20671;-76
2022/03/24 03:19:11;;;;;;;23.60;17.10;;;;;;;;;;5017508;28;20722;-74
2022/03/24 03:21:38;;;;;;;25.17;17.27;;;;;;;;;;5005488;28;20209;-75
2022/03/24 03:24:06;;;;;;;25.55;18.08;;;;;;;;;;5004448;28;20203;-74
2022/03/24 03:26:33;;;;;;;20.88;16.63;;;;;;;;;;5003506;28;20528;-74
2022/03/24 03:29:02;;;;;;;19.13;15.98;;;;;;;;;;5018794;28;20204;-75
2022/03/24 03:31:29;;;;;;;22.02;14.80;;;;;;;;;;5005482;28;20738;-74
2022/03/24 03:33:56;;;;;;;22.23;17.65;;;;;;;;;;5007916;28;20282;-75
2022/03/24 03:36:24;;;;;;;21.33;16.55;;;;;;;;;;5000859;28;20212;-73
2022/03/24 03:38:52;;;;;;;20.98;16.00;;;;;;;;;;5002565;28;20207;-73
2022/03/24 03:41:21;;;;;;;21.02;15.90;;;;;;;;;;4996583;28;20196;-75
2022/03/24 03:43:48;;;;;;;20.58;16.05;;;;;;;;;;4996715;28;20642;-74
2022/03/24 03:46:17;;;;;;;19.95;14.93;;;;;;;;;;4998333;28;20748;-73
2022/03/24 03:48:45;;;;;;;21.55;16.17;;;;;;;;;;5000474;28;20215;-74
2022/03/24 03:51:12;;;;;;;19.10;16.05;;;;;;;;;;5012436;28;20247;-78
2022/03/24 03:53:40;;;;;;;19.92;17.60;;;;;;;;;;4995872;28;20227;-79
2022/03/24 03:56:07;;;;;;;21.77;16.98;;;;;;;;;;5000159;28;21951;-77
2022/03/24 03:58:35;;;;;;;20.35;15.80;;;;;;;;;;5003064;28;20754;-78
2022/03/24 04:01:02;;;;;;;20.80;16.42;;;;;;;;;;4997265;28;20223;-78
2022/03/24 04:03:31;;;;;;;19.95;14.18;;;;;;;;;;5004095;28;20544;-78
2022/03/24 04:05:59;;;;;;;20.38;16.65;;;;;;;;;;5001829;28;20200;-79
2022/03/24 04:08:26;;;;;;;16.02;13.00;;;;;;;;;;5001831;28;20259;-79
2022/03/24 04:10:53;;;;;;;20.27;14.82;;;;;;;;;;5017093;28;20204;-79
2022/03/24 04:13:21;;;;;;;18.30;14.93;;;;;;;;;;5012851;28;20220;-79
2022/03/24 04:15:49;;;;;;;20.85;14.85;;;;;;;;;;5014647;28;20601;-79
2022/03/24 04:18:17;;;;;;;18.85;14.05;;;;;;;;;;5011238;28;20207;-79
2022/03/24 04:20:46;;;;;;;18.60;15.00;;;;;;;;;;5007977;28;20558;-78
2022/03/24 04:23:13;;;;;;;17.45;14.80;;;;;;;;;;5001150;28;20200;-78
2022/03/24 04:25:40;;;;;;;16.52;14.40;;;;;;;;;;5009623;28;20204;-79
2022/03/24 04:28:07;;;;;;;17.90;14.85;;;;;;;;;;5005376;28;20205;-78
2022/03/24 04:30:36;;;;;;;20.67;16.20;;;;;;;;;;5001569;28;20201;-78
2022/03/24 04:33:04;;;;;;;20.17;15.75;;;;;;;;;;4999629;28;20199;-79
2022/03/24 04:35:31;;;;;;;21.63;15.10;;;;;;;;;;5009047;28;20299;-78
2022/03/24 04:38:00;;;;;;;20.10;14.60;;;;;;;;;;5012683;28;20231;-78
2022/03/24 04:40:28;;;;;;;23.42;15.18;;;;;;;;;;5000521;28;20208;-79
2022/03/24 04:42:56;;;;;;;16.35;12.70;;;;;;;;;;5005216;28;20202;-78
2022/03/24 04:45:24;;;;;;;18.60;14.93;;;;;;;;;;4999964;28;20196;-77
2022/03/24 04:47:51;;;;;;;19.00;14.55;;;;;;;;;;5007445;28;20659;-77
2022/03/24 04:50:18;;;;;;;23.35;14.77;;;;;;;;;;5004111;28;20247;-79
2022/03/24 04:52:46;;;;;;;18.23;14.45;;;;;;;;;;5004616;28;20199;-78
2022/03/24 04:55:15;;;;;;;19.63;14.57;;;;;;;;;;5013963;28;20228;-78
2022/03/24 04:57:42;;;;;;;19.50;14.05;;;;;;;;;;4996094;28;20251;-79
2022/03/24 05:00:10;;;;;;;26.80;14.85;;;;;;;;;;5005442;28;20283;-78
2022/03/24 05:02:37;;;;;;;18.75;13.52;;;;;;;;;;5008905;28;20199;-78
2022/03/24 05:05:05;;;;;;;18.65;14.13;;;;;;;;;;5005687;28;20192;-78
2022/03/24 05:07:32;;;;;;;16.38;13.57;;;;;;;;;;5003451;28;20581;-78
2022/03/24 05:09:59;;;;;;;18.05;15.02;;;;;;;;;;4998361;28;20197;-79
2022/03/24 05:12:28;;;;;;;18.40;14.27;;;;;;;;;;4997736;28;20683;-78
2022/03/24 05:14:55;;;;;;;19.52;13.95;;;;;;;;;;4998274;28;20247;-79
2022/03/24 05:17:22;;;;;;;19.90;15.00;;;;;;;;;;5009018;28;20197;-77
2022/03/24 05:19:50;;;;;;;18.58;14.40;;;;;;;;;;4998556;28;20275;-78
2022/03/24 05:22:17;;;;;;;21.63;13.95;;;;;;;;;;4998438;28;20207;-78
2022/03/24 05:24:44;;;;;;;18.75;14.43;;;;;;;;;;4996331;28;20736;-78
2022/03/24 05:27:12;;;;;;;14.98;13.15;;;;;;;;;;5007187;28;20204;-79
2022/03/24 05:29:40;;;;;;;22.40;13.88;;;;;;;;;;5005630;28;20208;-77
2022/03/24 05:32:07;;;;;;;15.98;14.23;;;;;;;;;;4995864;28;20678;-77
2022/03/24 05:34:34;;;;;;;17.38;13.48;;;;;;;;;;4999473;28;20699;-78
2022/03/24 05:37:02;;;;;;;20.00;16.40;;;;;;;;;;4998631;28;20654;-77
2022/03/24 05:39:29;;;;;;;15.95;13.55;;;;;;;;;;5002948;28;20201;-78
2022/03/24 05:41:57;;;;;;;19.67;14.77;;;;;;;;;;4995721;28;20204;-79
2022/03/24 05:44:24;;;;;;;17.35;14.93;;;;;;;;;;4995087;28;20196;-79
2022/03/24 05:46:53;;;;;;;16.77;12.80;;;;;;;;;;4996422;28;20201;-78
2022/03/24 05:49:21;;;;;;;18.30;14.32;;;;;;;;;;4999101;28;20219;-78
2022/03/24 05:51:48;;;;;;;17.33;15.52;;;;;;;;;;4995020;28;20196;-79
2022/03/24 05:54:16;;;;;;;18.23;14.60;;;;;;;;;;4996948;28;20587;-79
2022/03/24 05:56:43;;;;;;;15.85;14.13;;;;;;;;;;4997344;28;20270;-78
2022/03/24 05:59:11;;;;;;;16.33;13.57;;;;;;;;;;4994620;28;20224;-78
2022/03/24 06:01:39;;;;;;;17.95;13.50;;;;;;;;;;5001262;28;20211;-78
2022/03/24 06:04:09;;;;;;;20.90;14.35;;;;;;;;;;4998417;28;20706;-78
2022/03/24 06:06:37;;;;;;;17.10;15.30;;;;;;;;;;5008810;28;20668;-80
2022/03/24 06:09:05;;;;;;;16.58;13.55;;;;;;;;;;5000161;28;20208;-79
2022/03/24 06:11:35;;;;;;;17.50;14.40;;;;;;;;;;5003763;28;20660;-78
2022/03/24 06:14:02;;;;;;;20.80;14.32;;;;;;;;;;5005818;28;20304;-78
2022/03/24 06:16:30;;;;;;;17.13;15.27;;;;;;;;;;4999229;28;20204;-78
2022/03/24 06:18:57;;;;;;;19.63;13.65;;;;;;;;;;5000022;28;20385;-78
2022/03/24 06:21:26;;;;;;;16.70;12.45;;;;;;;;;;4997707;28;20201;-77
2022/03/24 06:23:53;;;;;;;16.75;14.23;;;;;;;;;;5005238;28;20205;-77
2022/03/24 06:26:21;;;;;;;19.27;14.55;;;;;;;;;;5006536;28;20674;-78
2022/03/24 06:28:48;;;;;;;19.55;15.77;;;;;;;;;;5011797;28;20196;-78
2022/03/24 06:31:15;;;;;;;18.40;15.40;;;;;;;;;;5005466;28;20208;-77
2022/03/24 06:33:42;;;;;;;15.90;14.18;;;;;;;;;;5009389;28;20663;-78
2022/03/24 06:36:09;;;;;;;19.73;15.70;;;;;;;;;;5001319;28;20586;-78
2022/03/24 06:38:38;;;;;;;19.40;14.35;;;;;;;;;;5008616;28;20205;-78
2022/03/24 06:41:06;;;;;;;17.92;13.77;;;;;;;;;;5008962;28;20200;-79
2022/03/24 06:43:34;;;;;;;21.35;14.40;;;;;;;;;;5010014;28;20193;-78
2022/03/24 06:46:01;;;;;;;19.77;14.27;;;;;;;;;;5006496;28;20576;-78
2022/03/24 06:48:28;;;;;;;20.85;16.20;;;;;;;;;;5008418;28;20212;-79
2022/03/24 06:50:55;;;;;;;18.30;13.40;;;;;;;;;;5002002;28;20200;-79
2022/03/24 06:53:22;;;;;;;19.17;15.57;;;;;;;;;;4996598;28;20203;-78
2022/03/24 06:55:51;;;;;;;19.58;12.50;;;;;;;;;;4997451;28;20231;-78
2022/03/24 06:58:18;;;;;;;16.50;13.32;;;;;;;;;;5002636;28;20235;-77
2022/03/24 07:00:45;;;;;;;16.25;13.32;;;;;;;;;;5000916;28;20196;-79
2022/03/24 07:03:12;;;;;;;18.05;13.35;;;;;;;;;;4999331;28;20211;-78
2022/03/24 07:05:39;;;;;;;16.10;14.13;;;;;;;;;;4994582;28;20200;-79
2022/03/24 07:08:07;;;;;;;18.27;14.45;;;;;;;;;;4995924;28;20212;-78
2022/03/24 07:10:34;;;;;;;15.32;13.30;;;;;;;;;;4998178;28;20201;-78
2022/03/24 07:13:02;;;;;;;18.58;15.30;;;;;;;;;;4999681;28;20760;-79
2022/03/24 07:15:29;;;;;;;19.77;14.73;;;;;;;;;;4994629;28;20220;-79
2022/03/24 07:17:56;;;;;;;18.88;14.55;;;;;;;;;;4996672;28;20197;-78
2022/03/24 07:20:24;;;;;;;15.95;13.38;;;;;;;;;;4997640;28;20207;-78
2022/03/24 07:22:51;;;;;;;17.38;13.00;;;;;;;;;;4995507;28;20201;-78
2022/03/24 07:25:18;;;;;;;15.10;12.07;;;;;;;;;;4994015;28;20284;-77
2022/03/24 07:27:45;;;;;;;17.42;13.30;;;;;;;;;;4990795;28;20296;-78
2022/03/24 07:30:14;;;;;;;18.88;13.30;;;;;;;;;;5003805;28;20199;-77
2022/03/24 07:32:42;;;;;;;13.60;11.55;;;;;;;;;;5004854;28;20618;-78
2022/03/24 07:35:11;;;;;;;18.30;13.38;;;;;;;;;;4996770;28;20212;-79
2022/03/24 07:37:38;;;;;;;13.23;11.82;;;;;;;;;;4992306;28;21019;-78
2022/03/24 07:40:07;;;;;;;15.27;12.48;;;;;;;;;;5000818;28;20676;-79
2022/03/24 07:42:34;;;;;;;16.45;14.15;;;;;;;;;;5001422;28;20213;-79
2022/03/24 07:45:01;;;;;;;14.15;12.27;;;;;;;;;;5004811;28;20566;-77
2022/03/24 07:47:29;;;;;;;12.35;10.95;;;;;;;;;;5007932;28;20476;-79
2022/03/24 07:49:56;;;;;;;16.90;11.77;;;;;;;;;;4998707;28;21141;-77
2022/03/24 07:52:26;;;;;;;16.00;12.95;;;;;;;;;;5003858;28;20208;-79
2022/03/24 07:54:59;;;;;;;17.75;12.45;;;;;;;;;;4999504;28;20270;-78
2022/03/24 07:57:27;;;;;;;15.32;13.45;;;;;;;;;;5010384;28;20197;-79
2022/03/24 07:59:54;;;;;;;16.55;12.93;;;;;;;;;;4999240;28;20203;-79
2022/03/24 08:02:21;;;;;;;13.38;11.60;;;;;;;;;;5005830;28;20559;-78
2022/03/24 08:04:49;;;;;;;16.90;12.65;;;;;;;;;;5009250;28;20203;-79
2022/03/24 08:07:16;;;;;;;21.30;13.15;;;;;;;;;;5002232;28;20200;-79
2022/03/24 08:09:43;;;;;;;18.15;13.75;;;;;;;;;;5006543;28;20574;-79
2022/03/24 08:12:11;;;;;;;18.27;13.35;;;;;;;;;;4995486;28;20200;-79
2022/03/24 08:14:38;;;;;;;14.65;13.20;;;;;;;;;;5004104;28;20212;-79
2022/03/24 08:17:06;;;;;;;14.15;12.23;;;;;;;;;;5003223;28;20193;-77
2022/03/24 08:19:34;;;;;;;13.68;12.13;;;;;;;;;;5002144;28;20201;-78
2022/03/24 08:22:02;;;;;;;17.92;13.05;;;;;;;;;;5001053;28;20573;-79
2022/03/24 08:24:30;;;;;;;14.77;13.23;;;;;;;;;;5000942;28;20200;-79
2022/03/24 08:26:57;;;;;;;15.20;11.27;;;;;;;;;;4999915;28;20205;-78
2022/03/24 08:29:24;;;;;;;16.40;12.85;;;;;;;;;;4996791;28;20661;-79
2022/03/24 08:31:51;;;;;;;13.00;11.13;;;;;;;;;;5000865;28;20203;-78
2022/03/24 08:34:18;;;;;;;12.93;11.30;;;;;;;;;;4995139;28;20192;-78
2022/03/24 08:36:45;;;;;;;18.23;13.57;;;;;;;;;;5003613;28;20200;-78
2022/03/24 08:39:17;;;;;;;15.98;13.63;;;;;;;;;;5005090;28;20643;-78
2022/03/24 08:41:44;;;;;;;15.85;13.43;;;;;;;;;;5000922;28;20219;-78
2022/03/24 08:44:11;;;;;;;15.65;12.13;;;;;;;;;;5004548;28;20199;-79
2022/03/24 08:46:38;;;;;;;16.95;11.70;;;;;;;;;;5006350;28;20579;-79
2022/03/24 08:49:05;;;;;;;17.27;12.63;;;;;;;;;;4999671;28;20531;-78
2022/03/24 08:51:32;;;;;;;14.68;11.05;;;;;;;;;;4999059;28;20649;-79
2022/03/24 08:53:59;;;;;;;14.70;11.48;;;;;;;;;;5001548;28;20223;-77
2022/03/24 08:56:28;;;;;;;13.35;11.40;;;;;;;;;;5002055;28;20216;-78
2022/03/24 08:58:55;;;;;;;24.98;20.60;;;;;;;;;;4998790;28;20200;-84
2022/03/24 09:01:22;;;;;;;30.98;23.25;;;;;;;;;;5006500;28;20200;-78
2022/03/24 09:03:51;;;;;;;34.90;23.75;;;;;;;;;;5008208;28;20661;-78
2022/03/24 09:06:18;;;;;;;27.08;21.95;;;;;;;;;;5007056;28;20219;-78
2022/03/24 09:08:45;;;;;;;27.98;19.90;;;;;;;;;;4999056;28;20243;-77
2022/03/24 09:11:12;;;;;;;28.80;20.65;;;;;;;;;;5003921;28;20647;-79
2022/03/24 09:13:41;;;;;;;25.23;20.15;;;;;;;;;;5010080;28;20200;-80
2022/03/24 09:16:08;;;;;;;27.15;19.13;;;;;;;;;;5005548;28;20219;-77
2022/03/24 09:18:35;;;;;;;24.08;18.77;;;;;;;;;;5001716;28;20236;-79
2022/03/24 09:21:02;;;;;;;22.70;18.95;;;;;;;;;;4999572;28;20209;-78
2022/03/24 09:23:29;;;;;;;24.83;18.92;;;;;;;;;;5000742;28;20203;-79
2022/03/24 09:25:56;;;;;;;23.65;18.25;;;;;;;;;;5004848;28;20196;-78
2022/03/24 09:28:24;;;;;;;22.08;18.08;;;;;;;;;;5010640;28;20211;-78
2022/03/24 09:30:55;;;;;;;23.50;18.15;;;;;;;;;;5004255;28;20197;-79
2022/03/24 09:33:22;;;;;;;24.73;16.50;;;;;;;;;;5001854;28;20207;-79
2022/03/24 09:35:50;;;;;;;20.20;18.08;;;;;;;;;;5006800;28;20622;-77
2022/03/24 09:38:17;;;;;;;21.45;15.98;;;;;;;;;;5008991;28;20258;-77
2022/03/24 09:40:45;;;;;;;19.55;15.75;;;;;;;;;;5009192;28;20550;-78
2022/03/24 09:43:14;;;;;;;20.70;15.98;;;;;;;;;;5000408;28;20208;-79
2022/03/24 09:45:41;;;;;;;29.45;18.33;;;;;;;;;;5001259;28;20200;-78
2022/03/24 09:48:12;;;;;;;19.85;16.63;;;;;;;;;;5003569;28;20207;-79
2022/03/24 09:50:39;;;;;;;20.75;16.67;;;;;;;;;;5011350;28;20212;-79
2022/03/24 09:53:06;;;;;;;23.00;16.17;;;;;;;;;;5006905;28;20278;-79
2022/03/24 09:55:36;;;;;;;21.20;16.48;;;;;;;;;;5003790;28;20221;-79
2022/03/24 09:58:04;;;;;;;22.52;15.60;;;;;;;;;;5008801;28;20244;-79
2022/03/24 10:00:31;;;;;;;30.10;16.27;;;;;;;;;;5000160;28;20200;-78
2022/03/24 10:03:09;;;;;;;24.67;18.05;;;;;;;;;;5007547;28;20195;-79
2022/03/24 10:05:36;;;;;;;18.13;14.93;;;;;;;;;;5000703;28;20570;-78
2022/03/24 10:08:05;;;;;;;19.25;14.32;;;;;;;;;;5018001;28;20203;-79
2022/03/24 10:10:34;;;;;;;27.23;16.17;;;;;;;;;;5015431;28;20242;-78
2022/03/24 10:13:01;;;;;;;19.40;17.40;;;;;;;;;;5011385;28;20332;-78
2022/03/24 10:15:28;;;;;;;19.02;14.68;;;;;;;;;;5010537;28;20227;-79
2022/03/24 10:17:56;;;;;;;19.13;16.00;;;;;;;;;;5010242;28;20199;-78
2022/03/24 10:20:29;;;;;;;23.25;18.67;;;;;;;;;;4992154;28;20291;-78
2022/03/24 10:22:57;;;;;;;16.95;15.07;;;;;;;;;;4991895;28;20193;-79
2022/03/24 10:25:25;;;;;;;19.05;15.63;;;;;;;;;;4994619;28;20561;-79
2022/03/24 10:27:53;;;;;;;18.60;15.40;;;;;;;;;;5010175;28;20827;-79
2022/03/24 10:30:20;;;;;;;17.05;14.70;;;;;;;;;;5000479;28;20203;-78
2022/03/24 10:32:55;;;;;;;21.85;17.38;;;;;;;;;;5009619;28;20200;-79
2022/03/24 10:35:23;;;;;;;19.38;15.57;;;;;;;;;;5017578;28;20219;-79
2022/03/24 10:37:54;;;;;;;19.65;15.20;;;;;;;;;;5006767;28;20249;-78
2022/03/24 10:40:22;;;;;;;18.45;13.88;;;;;;;;;;5011020;28;20690;-79
2022/03/24 10:42:49;;;;;;;19.50;14.27;;;;;;;;;;5010024;28;20266;-79
2022/03/24 10:45:18;;;;;;;17.55;15.70;;;;;;;;;;5002746;28;20188;-79
2022/03/24 10:47:55;;;;;;;23.00;16.25;;;;;;;;;;5009926;28;20265;-79
2022/03/24 10:50:32;;;;;;;21.55;16.10;;;;;;;;;;5000440;28;20206;-79
2022/03/24 10:53:02;;;;;;;22.70;17.52;;;;;;;;;;5006318;28;20207;-79
2022/03/24 10:55:34;;;;;;;26.73;18.25;;;;;;;;;;5011425;28;20236;-79
2022/03/24 10:58:04;;;;;;;20.75;16.15;;;;;;;;;;5003856;28;20192;-78
2022/03/24 11:00:32;;;;;;;25.42;18.17;;;;;;;;;;4999254;28;20288;-78
2022/03/24 11:02:59;;;;;;;27.13;19.25;;;;;;;;;;5004680;28;20430;-79
2022/03/24 11:05:26;;;;;;;20.30;16.77;;;;;;;;;;5007004;28;20196;-79
2022/03/24 11:07:54;;;;;;;20.75;15.85;;;;;;;;;;5008853;28;20200;-79
2022/03/24 11:10:23;;;;;;;23.25;15.55;;;;;;;;;;5009402;28;20207;-79
2022/03/24 11:12:51;;;;;;;21.75;15.20;;;;;;;;;;5007722;28;20208;-79
2022/03/24 11:15:19;;;;;;;19.90;14.60;;;;;;;;;;5003809;28;20236;-78
2022/03/24 11:17:47;;;;;;;27.23;20.60;;;;;;;;;;5001327;28;20208;-79
2022/03/24 11:20:20;;;;;;;28.48;18.85;;;;;;;;;;5006267;28;20193;-77
2022/03/24 11:22:48;;;;;;;22.25;18.42;;;;;;;;;;5008330;28;20668;-78
2022/03/24 11:25:17;;;;;;;25.67;20.02;;;;;;;;;;5007046;28;20197;-79
2022/03/24 11:27:45;;;;;;;21.27;15.40;;;;;;;;;;5012245;28;20211;-79
2022/03/24 11:30:13;;;;;;;24.80;19.25;;;;;;;;;;4997182;28;20552;-78
2022/03/24 11:32:42;;;;;;;27.77;18.20;;;;;;;;;;5003433;28;20208;-78
2022/03/24 11:35:09;;;;;;;24.30;19.02;;;;;;;;;;5003943;28;20645;-78
2022/03/24 11:37:37;;;;;;;21.67;15.90;;;;;;;;;;5004063;28;20196;-79
2022/03/24 11:40:07;;;;;;;24.80;18.90;;;;;;;;;;4997740;28;20673;-78
2022/03/24 11:42:35;;;;;;;22.63;16.60;;;;;;;;;;5015242;28;20212;-78
2022/03/24 11:45:08;;;;;;;30.30;19.35;;;;;;;;;;5006513;28;20196;-77
2022/03/24 11:47:52;;;;;;;24.92;19.42;;;;;;;;;;5011687;28;20211;-79
2022/03/24 11:50:19;;;;;;;26.52;18.52;;;;;;;;;;5006889;28;20274;-78
2022/03/24 11:52:46;;;;;;;24.00;18.70;;;;;;;;;;5006153;28;20208;-78
2022/03/24 11:55:16;;;;;;;27.95;19.50;;;;;;;;;;5012358;28;20242;-79
2022/03/24 11:57:43;;;;;;;25.65;19.73;;;;;;;;;;5008075;28;20290;-78
2022/03/24 12:00:30;;;;;;;24.00;18.20;;;;;;;;;;5002218;28;20209;-78
2022/03/24 12:03:01;;;;;;;23.45;19.60;;;;;;;;;;5010995;28;20666;-79
2022/03/24 12:05:42;;;;;;;28.30;20.77;;;;;;;;;;5006169;28;20292;-78
2022/03/24 12:08:10;;;;;;;25.05;18.02;;;;;;;;;;5005049;28;20216;-78
2022/03/24 12:10:37;;;;;;;22.77;19.20;;;;;;;;;;5008973;28;20668;-79
2022/03/24 12:13:19;;;;;;;42.35;23.65;;;;;;;;;;5006050;28;20212;-77
2022/03/24 12:15:46;;;;;;;19.17;16.67;;;;;;;;;;5004313;28;20224;-78
2022/03/24 12:18:18;;;;;;;21.60;16.95;;;;;;;;;;5002646;28;20651;-78
2022/03/24 12:20:46;;;;;;;27.95;20.08;;;;;;;;;;5007407;28;20204;-78
2022/03/24 12:23:13;;;;;;;22.83;18.55;;;;;;;;;;5003881;28;20238;-77
2022/03/24 12:25:41;;;;;;;25.10;20.35;;;;;;;;;;5007289;28;20196;-78
2022/03/24 12:28:13;;;;;;;27.65;19.08;;;;;;;;;;5007083;28;20207;-78
2022/03/24 12:30:44;;;;;;;27.23;19.25;;;;;;;;;;5003629;28;20208;-77
2022/03/24 12:33:12;;;;;;;28.67;18.92;;;;;;;;;;5007477;28;20232;-78
2022/03/24 12:35:42;;;;;;;24.27;18.05;;;;;;;;;;4990891;28;20227;-78
2022/03/24 12:38:21;;;;;;;25.80;19.45;;;;;;;;;;4990433;28;20214;-78
2022/03/24 12:41:07;;;;;;;24.67;20.42;;;;;;;;;;4991413;28;20204;-78
2022/03/24 12:43:40;;;;;;;25.92;18.45;;;;;;;;;;4999700;28;20208;-78
2022/03/24 12:46:20;;;;;;;28.58;19.65;;;;;;;;;;4999052;28;20196;-78
2022/03/24 12:48:47;;;;;;;23.40;18.83;;;;;;;;;;5014539;28;20203;-79
2022/03/24 12:51:19;;;;;;;22.30;15.82;;;;;;;;;;5011519;28;20200;-78
2022/03/24 12:53:51;;;;;;;24.83;20.10;;;;;;;;;;5002790;28;20208;-78
2022/03/24 12:56:22;;;;;;;21.92;17.05;;;;;;;;;;4993485;28;20255;-78
2022/03/24 12:58:53;;;;;;;20.65;16.95;;;;;;;;;;5010358;28;20239;-80
2022/03/24 13:01:20;;;;;;;26.10;18.70;;;;;;;;;;5001313;28;20207;-80
2022/03/24 13:03:54;;;;;;;27.60;21.83;;;;;;;;;;5010171;28;20651;-81
2022/03/24 13:06:24;;;;;;;22.30;17.10;;;;;;;;;;5007071;28;20196;-80
2022/03/24 13:09:09;;;;;;;39.20;18.70;;;;;;;;;;5008329;28;20214;-80
2022/03/24 13:11:48;;;;;;;21.30;16.52;;;;;;;;;;5006738;28;20205;-80
2022/03/24 13:14:17;;;;;;;26.73;20.10;;;;;;;;;;5001135;28;20228;-80
2022/03/24 13:16:44;;;;;;;23.27;17.63;;;;;;;;;;5008990;28;20228;-80
2022/03/24 13:19:11;;;;;;;25.63;17.50;;;;;;;;;;5007074;28;20204;-80
2022/03/24 13:21:39;;;;;;;23.98;19.15;;;;;;;;;;5006189;28;20588;-81
2022/03/24 13:24:07;;;;;;;28.77;19.10;;;;;;;;;;5003611;28;20208;-81
2022/03/24 13:26:34;;;;;;;25.83;18.88;;;;;;;;;;5008510;28;20203;-80
2022/03/24 13:29:01;;;;;;;26.63;18.30;;;;;;;;;;5005409;28;20656;-81
2022/03/24 13:31:30;;;;;;;29.30;19.70;;;;;;;;;;5010160;28;20204;-80
2022/03/24 13:33:57;;;;;;;35.22;21.48;;;;;;;;;;5012876;28;20464;-80
2022/03/24 13:36:24;;;;;;;26.08;19.50;;;;;;;;;;5001889;28;20217;-80
2022/03/24 13:38:52;;;;;;;27.50;22.13;;;;;;;;;;4994428;28;20207;-80
2022/03/24 13:41:20;;;;;;;26.02;18.92;;;;;;;;;;5011204;28;20690;-80
2022/03/24 13:43:47;;;;;;;27.33;20.63;;;;;;;;;;5005143;28;20208;-80
2022/03/24 13:46:14;;;;;;;24.98;19.50;;;;;;;;;;5004935;28;20199;-80
2022/03/24 13:48:42;;;;;;;27.05;21.30;;;;;;;;;;5011496;28;21624;-80
2022/03/24 13:51:11;;;;;;;27.83;21.50;;;;;;;;;;5017728;28;20584;-80
2022/03/24 13:53:38;;;;;;;29.13;21.50;;;;;;;;;;5000660;28;20528;-81
2022/03/24 13:56:08;;;;;;;23.30;18.38;;;;;;;;;;5013424;28;20230;-80
2022/03/24 13:58:35;;;;;;;23.00;17.42;;;;;;;;;;5009031;28;20206;-80
2022/03/24 14:01:03;;;;;;;28.48;21.33;;;;;;;;;;4999937;28;20197;-81
2022/03/24 14:03:31;;;;;;;27.70;22.10;;;;;;;;;;5001726;28;20196;-80
2022/03/24 14:06:00;;;;;;;31.38;18.98;;;;;;;;;;5007590;28;20195;-80
2022/03/24 14:08:31;;;;;;;26.45;20.60;;;;;;;;;;5001011;28;20200;-80
2022/03/24 14:11:16;;;;;;;26.33;16.75;;;;;;;;;;5015108;28;20655;-80
2022/03/24 14:13:45;;;;;;;27.83;18.95;;;;;;;;;;4998065;28;20304;-80
2022/03/24 14:16:19;;;;;;;27.92;20.42;;;;;;;;;;5006651;28;20223;-80
2022/03/24 14:19:05;;;;;;;24.02;19.13;;;;;;;;;;5006857;28;20208;-80
2022/03/24 14:21:38;;;;;;;29.02;18.98;;;;;;;;;;4997663;28;20242;-79
2022/03/24 14:24:05;;;;;;;24.45;19.67;;;;;;;;;;5003091;28;20206;-80